Time;durP1;ratioP1;P1;durP2;ratioP2;P2;SDS_P1;SDS_P2;PMS_P1;PMS_P2;Temp;Humidity;BMP_temperature;BMP_pressure;BME280_temperature;BME280_humidity;BME280_pressure;Samples;Min_cycle;Max_cycle;Signal;HPM_P1;HPM_P2
2023/08/08 00:00:48;;;;;;;1.37;1.20;;;;;;;14.05;100.00;98236.66;5054429;28;20215;-74
2023/08/08 00:03:15;;;;;;;2.47;1.10;;;;;;;14.12;100.00;98240.00;5054378;28;20295;-74
2023/08/08 00:05:41;;;;;;;1.47;1.10;;;;;;;14.13;100.00;98238.97;5054318;28;20221;-74
2023/08/08 00:08:08;;;;;;;1.77;1.30;;;;;;;14.20;100.00;98233.47;5054210;28;20209;-74
2023/08/08 00:10:34;;;;;;;2.67;1.20;;;;;;;14.22;100.00;98236.75;5053921;28;20577;-74
2023/08/08 00:13:00;;;;;;;1.77;1.27;;;;;;;14.34;100.00;98241.00;5054171;28;20211;-74
2023/08/08 00:15:27;;;;;;;1.70;1.30;;;;;;;14.32;100.00;98237.75;5054130;28;20201;-74
2023/08/08 00:17:53;;;;;;;2.10;1.20;;;;;;;14.45;100.00;98234.81;5054004;28;20212;-74
2023/08/08 00:20:20;;;;;;;2.13;1.10;;;;;;;14.56;99.96;98244.63;5053974;28;20228;-74
2023/08/08 00:22:46;;;;;;;2.67;1.30;;;;;;;14.54;100.00;98246.75;5054055;28;20213;-74
2023/08/08 00:25:12;;;;;;;2.17;1.17;;;;;;;14.57;100.00;98242.78;5053927;28;20231;-74
2023/08/08 00:27:43;;;;;;;2.50;1.27;;;;;;;14.60;100.00;98242.31;5053682;28;20217;-74
2023/08/08 00:30:11;;;;;;;2.07;1.30;;;;;;;14.61;100.00;98239.38;5053855;28;20307;-74
2023/08/08 00:32:38;;;;;;;1.63;1.40;;;;;;;14.59;100.00;98248.69;5053565;28;20648;-74
2023/08/08 00:35:04;;;;;;;2.50;1.13;;;;;;;14.66;100.00;98242.13;5053007;28;20197;-74
2023/08/08 00:37:31;;;;;;;1.23;1.10;;;;;;;14.72;99.58;98235.84;5053508;28;20695;-74
2023/08/08 00:39:57;;;;;;;3.20;1.40;;;;;;;14.77;99.71;98235.94;5053437;28;20225;-74
2023/08/08 00:42:23;;;;;;;1.40;1.30;;;;;;;14.75;99.68;98227.31;5053406;28;20205;-74
2023/08/08 00:44:50;;;;;;;1.93;1.20;;;;;;;14.85;99.18;98221.34;5053633;28;20230;-74
2023/08/08 00:47:16;;;;;;;1.20;1.10;;;;;;;14.82;99.80;98219.97;5053352;28;20559;-74
2023/08/08 00:49:44;;;;;;;1.07;1.07;;;;;;;14.79;99.87;98223.13;5053220;28;20716;-74
2023/08/08 00:52:11;;;;;;;1.00;1.00;;;;;;;14.92;97.84;98228.16;5053256;28;20622;-74
2023/08/08 00:54:37;;;;;;;2.60;1.30;;;;;;;14.90;98.87;98224.94;5053596;28;20205;-74
2023/08/08 00:57:04;;;;;;;3.30;1.40;;;;;;;14.84;98.29;98227.75;5053574;28;20231;-74
2023/08/08 00:59:30;;;;;;;1.30;1.20;;;;;;;14.77;100.00;98222.56;5053463;28;20221;-74
2023/08/08 01:01:58;;;;;;;2.60;1.10;;;;;;;14.77;98.92;98219.88;5053174;28;20574;-74
2023/08/08 01:04:27;;;;;;;1.50;1.07;;;;;;;14.68;100.00;98224.00;5053464;28;20267;-74
2023/08/08 01:07:11;;;;;;;1.47;1.37;;;;;;;14.69;99.63;98222.94;5053513;28;20596;-74
2023/08/08 01:09:43;;;;;;;1.73;1.33;;;;;;;14.69;100.00;98214.91;5053952;28;20225;-74
2023/08/08 01:12:13;;;;;;;2.17;1.60;;;;;;;14.57;100.00;98216.03;5053423;28;20197;-74
2023/08/08 01:14:43;;;;;;;2.60;1.20;;;;;;;14.53;100.00;98218.38;5058799;28;20194;-74
2023/08/08 01:17:12;;;;;;;2.03;1.07;;;;;;;14.47;100.00;98215.84;5058555;28;20672;-74
2023/08/08 01:19:39;;;;;;;1.33;1.17;;;;;;;14.45;100.00;98221.44;5059234;28;20232;-74
2023/08/08 01:22:10;;;;;;;5.27;1.40;;;;;;;14.47;100.00;98213.19;5058268;28;20209;-74
2023/08/08 01:24:37;;;;;;;1.23;1.13;;;;;;;14.47;100.00;98216.66;5058965;28;20221;-74
2023/08/08 01:27:05;;;;;;;2.17;1.33;;;;;;;14.47;100.00;98218.53;5059601;28;20217;-74
2023/08/08 01:29:31;;;;;;;2.83;1.20;;;;;;;14.55;100.00;98220.78;5059029;28;20240;-74
2023/08/08 01:31:58;;;;;;;1.33;1.23;;;;;;;14.51;100.00;98214.31;5058112;28;20206;-74
2023/08/08 01:34:24;;;;;;;2.20;1.13;;;;;;;14.53;100.00;98217.56;5053026;28;20211;-74
2023/08/08 01:37:00;;;;;;;2.83;1.20;;;;;;;14.54;100.00;98208.47;5053255;28;20215;-74
2023/08/08 01:39:28;;;;;;;1.70;1.00;;;;;;;14.57;100.00;98208.78;5052864;28;20791;-74
2023/08/08 01:42:00;;;;;;;3.93;1.40;;;;;;;14.58;100.00;98207.78;5053126;28;20205;-74
2023/08/08 01:44:29;;;;;;;2.60;1.40;;;;;;;14.58;100.00;98199.75;5053028;28;20205;-74
2023/08/08 01:46:55;;;;;;;2.03;1.20;;;;;;;14.58;100.00;98205.09;5054651;28;20205;-74
2023/08/08 01:49:22;;;;;;;1.30;1.10;;;;;;;14.52;100.00;98200.69;5056813;28;20231;-74
2023/08/08 01:51:50;;;;;;;1.90;1.20;;;;;;;14.51;100.00;98199.06;5056827;28;20204;-74
2023/08/08 01:54:17;;;;;;;1.80;1.20;;;;;;;14.53;100.00;98196.97;5056455;28;20271;-74
2023/08/08 01:56:43;;;;;;;1.97;1.30;;;;;;;14.51;100.00;98199.06;5056404;28;20560;-74
2023/08/08 01:59:09;;;;;;;1.33;1.23;;;;;;;14.59;100.00;98200.53;5056443;28;20738;-74
2023/08/08 02:01:36;;;;;;;1.60;1.10;;;;;;;14.55;100.00;98200.22;5056630;28;20201;-74
2023/08/08 02:04:03;;;;;;;1.93;1.30;;;;;;;14.57;100.00;98190.06;5056641;28;20205;-74
2023/08/08 02:06:29;;;;;;;2.00;1.30;;;;;;;14.63;100.00;98194.47;5056544;28;20229;-74
2023/08/08 02:08:56;;;;;;;1.20;1.03;;;;;;;14.58;100.00;98199.75;5056470;28;20227;-74
2023/08/08 02:11:22;;;;;;;3.00;1.53;;;;;;;14.63;100.00;98189.13;5056961;28;20205;-74
2023/08/08 02:13:49;;;;;;;1.10;1.00;;;;;;;14.66;100.00;98185.16;5056149;28;20212;-74
2023/08/08 02:16:15;;;;;;;1.40;1.23;;;;;;;14.64;100.00;98176.53;5056095;28;20288;-74
2023/08/08 02:18:41;;;;;;;1.37;1.27;;;;;;;14.63;100.00;98181.09;5056001;28;20236;-74
2023/08/08 02:21:08;;;;;;;2.53;1.20;;;;;;;14.66;100.00;98185.94;5056015;28;20209;-74
2023/08/08 02:23:35;;;;;;;2.13;1.30;;;;;;;14.67;100.00;98181.41;5055965;28;20209;-74
2023/08/08 02:26:01;;;;;;;2.50;1.20;;;;;;;14.62;100.00;98178.66;5056062;28;20229;-74
2023/08/08 02:28:28;;;;;;;3.40;1.30;;;;;;;14.66;100.00;98182.47;5055778;28;20240;-74
2023/08/08 02:30:55;;;;;;;1.63;1.10;;;;;;;14.55;100.00;98178.81;5056165;28;20211;-74
2023/08/08 02:33:21;;;;;;;1.50;1.30;;;;;;;14.57;100.00;98187.41;5056626;28;20208;-77
2023/08/08 02:35:47;;;;;;;1.47;1.20;;;;;;;14.47;100.00;98181.06;5060877;28;20204;-77
2023/08/08 02:38:14;;;;;;;1.20;1.10;;;;;;;14.41;100.00;98179.34;5056176;28;20204;-77
2023/08/08 02:40:40;;;;;;;1.47;1.10;;;;;;;14.33;100.00;98183.22;5056969;28;20205;-77
2023/08/08 02:43:07;;;;;;;2.03;1.30;;;;;;;14.28;100.00;98182.31;5063846;28;20201;-77
2023/08/08 02:45:33;;;;;;;2.10;1.43;;;;;;;14.20;100.00;98183.50;5055802;28;20225;-77
2023/08/08 02:47:59;;;;;;;2.53;1.50;;;;;;;14.26;100.00;98187.09;5056342;28;20214;-77
2023/08/08 02:50:26;;;;;;;2.23;1.30;;;;;;;14.23;100.00;98183.03;5055734;28;20221;-77
2023/08/08 02:52:52;;;;;;;2.60;1.37;;;;;;;14.23;100.00;98182.22;5055624;28;20208;-77
2023/08/08 02:55:19;;;;;;;1.77;1.40;;;;;;;14.18;100.00;98180.25;5056005;28;20207;-77
2023/08/08 02:57:45;;;;;;;1.57;1.47;;;;;;;14.15;100.00;98182.59;5069128;28;20201;-77
2023/08/08 03:00:12;;;;;;;1.43;1.33;;;;;;;14.16;100.00;98181.53;5074993;28;20224;-77
2023/08/08 03:02:38;;;;;;;1.30;1.13;;;;;;;14.16;100.00;98173.50;5075532;28;20204;-77
2023/08/08 03:05:05;;;;;;;1.90;1.30;;;;;;;14.09;100.00;98178.16;5075425;28;20220;-77
2023/08/08 03:07:32;;;;;;;2.10;1.20;;;;;;;14.07;100.00;98182.94;5075462;28;20287;-77
2023/08/08 03:09:58;;;;;;;2.83;1.40;;;;;;;14.00;100.00;98182.25;5075439;28;20233;-77
2023/08/08 03:12:24;;;;;;;1.30;1.10;;;;;;;14.01;100.00;98182.03;5075411;28;20214;-77
2023/08/08 03:14:51;;;;;;;1.90;1.10;;;;;;;14.00;100.00;98183.09;5075299;28;20207;-75
2023/08/08 03:17:17;;;;;;;2.43;1.30;;;;;;;14.00;100.00;98175.06;5074972;28;20204;-75
2023/08/08 03:19:44;;;;;;;1.40;1.30;;;;;;;13.99;100.00;98173.44;5074766;28;20235;-75
2023/08/08 03:22:11;;;;;;;1.33;1.23;;;;;;;13.98;100.00;98176.34;5075045;28;20205;-74
2023/08/08 03:24:37;;;;;;;1.37;1.27;;;;;;;14.02;100.00;98170.28;5074955;28;20204;-74
2023/08/08 03:27:04;;;;;;;2.20;1.53;;;;;;;13.94;100.00;98181.38;5074496;28;20224;-75
2023/08/08 03:29:30;;;;;;;2.70;1.20;;;;;;;13.87;100.00;98177.19;5074808;28;20228;-74
2023/08/08 03:31:56;;;;;;;3.80;1.20;;;;;;;13.94;100.00;98175.19;5074746;28;20212;-74
2023/08/08 03:34:23;;;;;;;1.83;1.17;;;;;;;13.94;100.00;98181.38;5074756;28;20201;-74
2023/08/08 03:36:49;;;;;;;1.90;1.30;;;;;;;13.93;100.00;98187.75;5074327;28;20208;-75
2023/08/08 03:39:15;;;;;;;2.30;1.53;;;;;;;14.01;100.00;98178.53;5073953;28;20228;-75
2023/08/08 03:41:42;;;;;;;1.43;1.10;;;;;;;14.12;100.00;98178.53;5074118;28;20218;-75
2023/08/08 03:44:08;;;;;;;2.40;1.07;;;;;;;14.14;100.00;98176.41;5074318;28;20211;-75
2023/08/08 03:46:35;;;;;;;2.10;1.50;;;;;;;14.10;100.00;98169.91;5073974;28;20664;-74
2023/08/08 03:49:01;;;;;;;3.43;1.40;;;;;;;14.16;100.00;98176.19;5074063;28;20281;-74
2023/08/08 03:51:27;;;;;;;2.63;1.50;;;;;;;14.18;100.00;98176.75;5073789;28;20205;-75
2023/08/08 03:53:54;;;;;;;2.07;1.43;;;;;;;14.20;100.00;98171.97;5074396;28;20227;-75
2023/08/08 03:56:20;;;;;;;1.33;1.10;;;;;;;14.28;100.00;98182.31;5074414;28;20201;-75
2023/08/08 03:58:47;;;;;;;1.67;1.53;;;;;;;14.32;100.00;98176.25;5074231;28;20325;-75
2023/08/08 04:01:13;;;;;;;1.47;0.90;;;;;;;14.35;100.00;98182.97;5070707;28;20201;-75
2023/08/08 04:03:50;;;;;;;2.40;1.40;;;;;;;14.33;100.00;98179.75;5072782;28;20208;-77
2023/08/08 04:06:16;;;;;;;1.37;1.27;;;;;;;14.37;100.00;98181.69;5062172;28;20212;-77
2023/08/08 04:08:42;;;;;;;1.97;1.13;;;;;;;14.32;100.00;98178.09;5070312;28;20221;-77
2023/08/08 04:11:09;;;;;;;1.47;1.17;;;;;;;14.28;100.00;98176.97;5053794;28;20647;-77
2023/08/08 04:13:35;;;;;;;1.70;1.20;;;;;;;14.37;100.00;98181.69;5053824;28;20209;-77
2023/08/08 04:16:02;;;;;;;1.60;1.20;;;;;;;14.34;100.00;98184.03;5054429;28;20285;-77
2023/08/08 04:18:28;;;;;;;2.50;1.40;;;;;;;14.39;100.00;98178.78;5052615;28;20279;-77
2023/08/08 04:20:54;;;;;;;1.23;1.10;;;;;;;14.43;100.00;98177.25;5053979;28;20569;-77
2023/08/08 04:23:22;;;;;;;2.13;1.10;;;;;;;14.38;100.00;98172.59;5053407;28;20209;-78
2023/08/08 04:25:48;;;;;;;2.43;1.47;;;;;;;14.38;100.00;98177.97;5058184;28;20223;-77
2023/08/08 04:28:15;;;;;;;1.93;1.33;;;;;;;14.40;100.00;98175.03;5067152;28;20218;-78
2023/08/08 04:30:42;;;;;;;1.80;1.17;;;;;;;14.37;100.00;98179.00;5058242;28;20292;-77
2023/08/08 04:33:08;;;;;;;2.40;1.30;;;;;;;14.36;100.00;98177.41;5055533;28;20215;-77
2023/08/08 04:35:34;;;;;;;1.27;1.10;;;;;;;14.33;100.00;98175.19;5073474;28;20200;-77
2023/08/08 04:38:01;;;;;;;1.57;1.17;;;;;;;14.36;100.00;98179.25;5066483;28;20197;-77
2023/08/08 04:40:27;;;;;;;1.20;1.10;;;;;;;14.39;100.00;98182.25;5062802;28;20205;-77
2023/08/08 04:42:54;;;;;;;2.60;1.23;;;;;;;14.43;100.00;98183.41;5062690;28;20193;-77
2023/08/08 04:45:20;;;;;;;1.30;1.17;;;;;;;14.39;100.00;98182.25;5061450;28;20227;-77
2023/08/08 04:47:47;;;;;;;3.83;1.40;;;;;;;14.36;100.00;98192.63;5062733;28;20209;-77
2023/08/08 04:50:14;;;;;;;2.80;1.43;;;;;;;14.39;100.00;98190.28;5053442;28;20229;-77
2023/08/08 04:52:40;;;;;;;1.77;1.23;;;;;;;14.40;100.00;98191.09;5053550;28;20211;-77
2023/08/08 04:55:07;;;;;;;1.70;1.50;;;;;;;14.42;100.00;98200.50;5053146;28;20201;-77
2023/08/08 04:57:33;;;;;;;3.47;1.23;;;;;;;14.49;100.00;98200.38;5053167;28;20205;-77
2023/08/08 05:00:02;;;;;;;1.30;1.07;;;;;;;14.47;100.00;98194.44;5052842;28;20774;-77
2023/08/08 05:02:29;;;;;;;1.70;1.20;;;;;;;14.42;100.00;98199.72;5053405;28;20209;-78
2023/08/08 05:04:55;;;;;;;1.70;1.53;;;;;;;14.37;100.00;98199.59;5053163;28;20215;-77
2023/08/08 05:07:22;;;;;;;4.50;1.37;;;;;;;14.32;100.00;98189.63;5052982;28;20722;-77
2023/08/08 05:09:48;;;;;;;3.00;1.37;;;;;;;14.34;100.00;98198.22;5053283;28;20228;-77
2023/08/08 05:12:14;;;;;;;1.30;1.20;;;;;;;14.31;100.00;98198.72;5053207;28;20200;-77
2023/08/08 05:14:41;;;;;;;1.63;1.40;;;;;;;14.33;100.00;98195.81;5052832;28;20668;-77
2023/08/08 05:17:07;;;;;;;2.03;1.40;;;;;;;14.33;100.00;98180.53;5052998;28;20546;-77
2023/08/08 05:19:33;;;;;;;1.83;1.40;;;;;;;14.47;100.00;98178.41;5052818;28;20703;-77
2023/08/08 05:22:00;;;;;;;1.67;1.40;;;;;;;14.56;100.00;98180.44;5054783;28;20208;-77
2023/08/08 05:24:27;;;;;;;1.23;1.10;;;;;;;14.64;100.00;98181.91;5057454;28;20240;-78
2023/08/08 05:26:53;;;;;;;2.77;1.20;;;;;;;14.68;100.00;98178.50;5056858;28;20224;-77
2023/08/08 05:29:20;;;;;;;3.10;1.40;;;;;;;14.70;100.00;98179.06;5057108;28;20283;-78
2023/08/08 05:31:47;;;;;;;1.63;1.53;;;;;;;14.75;100.00;98178.34;5057151;28;20207;-77
2023/08/08 05:34:14;;;;;;;1.40;1.30;;;;;;;14.83;100.00;98176.06;5056857;28;20236;-77
2023/08/08 05:36:40;;;;;;;1.63;1.23;;;;;;;14.85;100.00;98178.50;5056849;28;20223;-78
2023/08/08 05:39:09;;;;;;;1.90;1.20;;;;;;;14.89;100.00;98191.19;5056600;28;20560;-78
2023/08/08 05:41:36;;;;;;;1.77;1.40;;;;;;;14.93;100.00;98191.50;5056632;28;20294;-77
2023/08/08 05:44:02;;;;;;;2.37;1.50;;;;;;;14.99;100.00;98201.22;5056321;28;20201;-75
2023/08/08 05:46:28;;;;;;;1.47;1.33;;;;;;;15.06;100.00;98191.97;5056011;28;20221;-75
2023/08/08 05:48:55;;;;;;;2.00;1.40;;;;;;;15.14;100.00;98199.63;5056501;28;20229;-75
2023/08/08 05:51:21;;;;;;;2.17;1.33;;;;;;;15.13;100.00;98197.16;5056235;28;20628;-75
2023/08/08 05:53:48;;;;;;;1.37;1.27;;;;;;;15.21;100.00;98205.63;5055972;28;20209;-75
2023/08/08 05:56:14;;;;;;;5.70;1.30;;;;;;;15.26;100.00;98200.34;5056299;28;20201;-75
2023/08/08 05:58:40;;;;;;;1.40;1.30;;;;;;;15.39;100.00;98197.38;5056538;28;20567;-75
2023/08/08 06:01:09;;;;;;;5.10;1.40;;;;;;;15.47;100.00;98204.97;5056200;28;20209;-75
2023/08/08 06:03:37;;;;;;;4.53;1.23;;;;;;;15.52;100.00;98202.34;5056415;28;20205;-75
2023/08/08 06:06:04;;;;;;;1.20;1.10;;;;;;;15.56;100.00;98195.44;5056080;28;20256;-75
2023/08/08 06:08:30;;;;;;;1.30;1.20;;;;;;;15.66;100.00;98200.97;5056129;28;20310;-75
2023/08/08 06:10:57;;;;;;;2.20;1.60;;;;;;;15.76;100.00;98197.59;5056109;28;20208;-75
2023/08/08 06:13:23;;;;;;;5.57;1.40;;;;;;;15.87;100.00;98199.38;5055649;28;20209;-75
2023/08/08 06:15:49;;;;;;;1.30;1.20;;;;;;;15.94;99.90;98199.97;5056174;28;20559;-75
2023/08/08 06:18:16;;;;;;;2.57;1.30;;;;;;;16.08;99.88;98190.50;5055955;28;20212;-75
2023/08/08 06:20:42;;;;;;;1.80;1.27;;;;;;;16.06;100.00;98201.47;5055683;28;20206;-75
2023/08/08 06:23:08;;;;;;;2.30;1.60;;;;;;;16.01;97.18;98197.94;5055940;28;20295;-75
2023/08/08 06:25:35;;;;;;;1.60;1.40;;;;;;;16.03;97.10;98199.28;5055655;28;20216;-75
2023/08/08 06:28:01;;;;;;;1.67;1.33;;;;;;;16.17;100.00;98187.13;5055235;28;20583;-75
2023/08/08 06:30:28;;;;;;;3.00;1.43;;;;;;;16.23;99.61;98193.34;5055569;28;20205;-75
2023/08/08 06:32:54;;;;;;;2.07;1.33;;;;;;;16.30;99.42;98184.06;5055640;28;20227;-75
2023/08/08 06:35:20;;;;;;;1.10;1.00;;;;;;;16.40;98.47;98194.94;5055419;28;20217;-75
2023/08/08 06:37:47;;;;;;;2.37;1.40;;;;;;;16.42;95.46;98192.00;5055737;28;20205;-75
2023/08/08 06:40:13;;;;;;;2.57;1.40;;;;;;;16.40;96.29;98196.78;5055813;28;20229;-75
2023/08/08 06:42:40;;;;;;;2.63;1.30;;;;;;;16.47;93.63;98194.72;5055655;28;20209;-75
2023/08/08 06:45:07;;;;;;;1.20;1.00;;;;;;;16.44;95.27;98196.03;5055631;28;20209;-74
2023/08/08 06:47:33;;;;;;;2.20;1.27;;;;;;;16.43;95.58;98196.28;5055577;28;20231;-75
2023/08/08 06:49:59;;;;;;;2.50;1.30;;;;;;;16.37;93.85;98191.91;5055549;28;20232;-74
2023/08/08 06:52:26;;;;;;;2.07;1.30;;;;;;;16.45;95.17;98204.88;5055609;28;20205;-75
2023/08/08 06:54:52;;;;;;;1.57;1.20;;;;;;;16.58;94.99;98197.25;5055243;28;20231;-75
2023/08/08 06:57:18;;;;;;;3.93;1.27;;;;;;;16.75;97.24;98197.16;5055262;28;20545;-75
2023/08/08 06:59:50;;;;;;;4.73;1.40;;;;;;;16.75;91.74;98187.22;5055238;28;20264;-75
2023/08/08 07:02:16;;;;;;;1.50;1.07;;;;;;;16.83;90.93;98189.44;5055045;28;20189;-75
2023/08/08 07:04:43;;;;;;;1.87;1.30;;;;;;;16.76;91.36;98185.34;5056127;28;20213;-75
2023/08/08 07:07:10;;;;;;;4.17;1.20;;;;;;;16.79;92.67;98193.69;5055242;28;20228;-75
2023/08/08 07:09:37;;;;;;;1.47;1.37;;;;;;;16.79;94.11;98187.53;5055272;28;20225;-76
2023/08/08 07:12:04;;;;;;;1.40;1.27;;;;;;;16.94;95.49;98193.00;5055218;28;20227;-75
2023/08/08 07:14:31;;;;;;;2.90;1.20;;;;;;;17.01;91.03;98196.31;5055094;28;20209;-75
2023/08/08 07:16:57;;;;;;;2.70;1.33;;;;;;;17.03;92.30;98192.31;5055119;28;20205;-75
2023/08/08 07:19:23;;;;;;;1.90;1.50;;;;;;;17.07;94.71;98197.97;5055136;28;20252;-75
2023/08/08 07:21:50;;;;;;;2.37;1.27;;;;;;;17.01;94.06;98194.41;5054947;28;20209;-75
2023/08/08 07:24:17;;;;;;;2.77;1.40;;;;;;;17.18;97.20;98197.78;5054955;28;20201;-75
2023/08/08 07:26:43;;;;;;;3.47;1.40;;;;;;;17.18;94.56;98191.59;5054713;28;20232;-75
2023/08/08 07:29:09;;;;;;;2.03;1.40;;;;;;;17.18;92.51;98187.03;5054506;28;20733;-75
2023/08/08 07:31:36;;;;;;;1.40;1.20;;;;;;;17.15;94.51;98187.53;5054598;28;20672;-75
2023/08/08 07:34:02;;;;;;;2.20;1.07;;;;;;;17.30;91.89;98190.34;5054478;28;20209;-75
2023/08/08 07:36:28;;;;;;;2.67;1.33;;;;;;;17.51;90.52;98186.75;5054667;28;20205;-75
2023/08/08 07:38:59;;;;;;;2.20;1.33;;;;;;;17.73;90.61;98182.03;5054196;28;20595;-75
2023/08/08 07:41:26;;;;;;;3.53;1.37;;;;;;;17.83;86.78;98183.97;5054629;28;20272;-75
2023/08/08 07:43:53;;;;;;;1.97;1.20;;;;;;;17.88;85.22;98179.44;5053641;28;20205;-75
2023/08/08 07:46:19;;;;;;;2.50;1.20;;;;;;;17.98;86.56;98186.72;5053580;28;20224;-75
2023/08/08 07:48:46;;;;;;;2.50;1.33;;;;;;;17.96;82.76;98184.28;5054263;28;20227;-75
2023/08/08 07:51:12;;;;;;;1.73;1.33;;;;;;;18.24;83.65;98185.75;5054402;28;20234;-75
2023/08/08 07:53:38;;;;;;;1.63;1.20;;;;;;;18.36;79.36;98184.47;5054000;28;20668;-75
2023/08/08 07:56:05;;;;;;;2.07;1.17;;;;;;;18.20;77.91;98182.78;5053798;28;20209;-75
2023/08/08 07:58:33;;;;;;;1.93;1.30;;;;;;;18.14;78.38;98178.44;5054114;28;20232;-75
2023/08/08 08:00:59;;;;;;;1.30;1.20;;;;;;;18.12;78.10;98172.53;5054061;28;20205;-74
2023/08/08 08:03:27;;;;;;;2.87;1.07;;;;;;;18.09;80.38;98170.34;5054044;28;20215;-75
2023/08/08 08:05:54;;;;;;;1.43;1.20;;;;;;;17.99;79.53;98173.03;5053656;28;20691;-75
2023/08/08 08:08:21;;;;;;;5.03;1.30;;;;;;;17.96;77.91;98176.22;5053861;28;20229;-75
2023/08/08 08:10:48;;;;;;;1.07;0.97;;;;;;;18.07;80.54;98167.13;5053749;28;20676;-75
2023/08/08 08:13:15;;;;;;;3.10;1.30;;;;;;;18.16;80.41;98175.50;5054217;28;20237;-75
2023/08/08 08:15:41;;;;;;;1.87;1.20;;;;;;;18.18;78.76;98168.00;5053875;28;20205;-75
2023/08/08 08:18:08;;;;;;;2.03;1.07;;;;;;;18.18;78.10;98173.38;5053812;28;20201;-75
2023/08/08 08:20:34;;;;;;;2.23;1.23;;;;;;;18.19;80.32;98181.16;5053136;28;20654;-75
2023/08/08 08:23:00;;;;;;;2.27;1.53;;;;;;;18.10;82.52;98171.97;5053311;28;20267;-75
2023/08/08 08:25:27;;;;;;;3.30;1.33;;;;;;;18.12;79.57;98169.84;5053429;28;20516;-75
2023/08/08 08:27:53;;;;;;;2.90;1.20;;;;;;;18.12;82.15;98172.53;5053355;28;20700;-75
2023/08/08 08:30:20;;;;;;;4.77;1.57;;;;;;;18.19;85.31;98167.69;5054180;28;20562;-76
2023/08/08 08:32:46;;;;;;;2.50;1.63;;;;;;;18.29;82.81;98175.81;5053439;28;20216;-75
2023/08/08 08:35:13;;;;;;;1.47;1.30;;;;;;;18.24;80.42;98173.09;5053717;28;20212;-75
2023/08/08 08:37:40;;;;;;;2.97;1.30;;;;;;;18.39;81.74;98175.06;5053923;28;20251;-75
2023/08/08 08:40:08;;;;;;;1.87;1.27;;;;;;;18.37;80.22;98167.25;5054339;28;20225;-75
2023/08/08 08:42:35;;;;;;;1.60;1.13;;;;;;;18.36;80.33;98168.31;5053259;28;20208;-74
2023/08/08 08:45:04;;;;;;;2.10;1.30;;;;;;;18.64;79.75;98172.44;5053423;28;20205;-75
2023/08/08 08:47:32;;;;;;;1.53;1.30;;;;;;;18.52;79.40;98163.78;5053233;28;20678;-75
2023/08/08 08:50:01;;;;;;;1.23;1.13;;;;;;;18.63;81.09;98168.91;5053185;28;20316;-75
2023/08/08 08:52:28;;;;;;;1.77;1.13;;;;;;;18.66;79.61;98154.09;5053527;28;20209;-75
2023/08/08 08:54:54;;;;;;;1.83;1.20;;;;;;;18.60;77.82;98161.38;5053580;28;20212;-75
2023/08/08 08:57:23;;;;;;;1.57;1.17;;;;;;;18.48;77.49;98160.00;5052372;28;20216;-75
2023/08/08 08:59:49;;;;;;;1.30;1.20;;;;;;;18.74;77.13;98159.75;5053324;28;20271;-75
2023/08/08 09:02:16;;;;;;;1.67;0.97;;;;;;;18.76;78.66;98160.31;5053181;28;20205;-73
2023/08/08 09:04:43;;;;;;;1.20;1.10;;;;;;;18.90;76.31;98149.81;5052802;28;20213;-73
2023/08/08 09:07:10;;;;;;;1.63;1.30;;;;;;;19.22;77.62;98140.38;5053224;28;20225;-73
2023/08/08 09:09:37;;;;;;;1.50;1.40;;;;;;;19.40;77.06;98152.47;5035290;28;20316;-73
2023/08/08 09:12:05;;;;;;;1.57;1.40;;;;;;;19.42;75.59;98144.94;5052535;28;20602;-74
2023/08/08 09:14:32;;;;;;;1.30;1.07;;;;;;;19.37;76.09;98143.03;5054065;28;20292;-74
2023/08/08 09:16:59;;;;;;;2.57;1.40;;;;;;;19.45;74.42;98144.41;5053606;28;20205;-74
2023/08/08 09:19:25;;;;;;;1.57;1.47;;;;;;;19.41;74.83;98137.94;5053301;28;20229;-74
2023/08/08 09:21:53;;;;;;;1.97;1.20;;;;;;;19.73;75.40;98144.56;5053379;28;20209;-74
2023/08/08 09:24:20;;;;;;;1.30;1.20;;;;;;;19.58;73.82;98140.31;5053123;28;20205;-75
2023/08/08 09:26:47;;;;;;;3.27;1.30;;;;;;;19.82;73.91;98136.75;5052852;28;20237;-74
2023/08/08 09:29:15;;;;;;;2.60;1.30;;;;;;;19.76;75.43;98137.03;5053113;28;20396;-75
2023/08/08 09:31:41;;;;;;;4.40;1.20;;;;;;;19.84;71.80;98139.94;5053159;28;20209;-75
2023/08/08 09:34:07;;;;;;;1.87;1.27;;;;;;;19.71;72.63;98132.44;5052845;28;20209;-74
2023/08/08 09:36:36;;;;;;;2.00;1.27;;;;;;;19.62;67.57;98133.31;5052605;28;20691;-74
2023/08/08 09:39:02;;;;;;;1.77;1.20;;;;;;;19.62;67.67;98126.00;5052442;28;20225;-74
2023/08/08 09:41:28;;;;;;;1.73;1.30;;;;;;;19.81;64.54;98120.81;5053345;28;20212;-74
2023/08/08 09:43:55;;;;;;;3.27;1.40;;;;;;;19.90;66.02;98122.66;5053055;28;20201;-74
2023/08/08 09:46:23;;;;;;;1.67;1.30;;;;;;;20.09;65.43;98121.00;5052617;28;20557;-74
2023/08/08 09:48:49;;;;;;;2.27;1.30;;;;;;;19.93;64.41;98124.81;5052882;28;20222;-73
2023/08/08 09:51:16;;;;;;;1.97;1.07;;;;;;;20.11;66.58;98113.41;5052551;28;20669;-74
2023/08/08 09:53:44;;;;;;;2.30;1.47;;;;;;;20.26;70.42;98112.53;5052235;28;20246;-74
2023/08/08 09:56:10;;;;;;;1.63;1.20;;;;;;;20.24;63.28;98112.81;5052911;28;20202;-73
2023/08/08 09:58:37;;;;;;;1.70;1.20;;;;;;;20.10;63.34;98119.09;5051797;28;20253;-73
2023/08/08 10:01:04;;;;;;;1.73;1.40;;;;;;;19.89;64.46;98117.56;5052339;28;20659;-73
2023/08/08 10:03:32;;;;;;;3.27;1.20;;;;;;;19.86;62.37;98108.13;5052415;28;20283;-73
2023/08/08 10:05:59;;;;;;;2.63;1.40;;;;;;;20.26;62.30;98104.44;5052523;28;20605;-74
2023/08/08 10:08:25;;;;;;;2.20;1.30;;;;;;;20.23;58.58;98113.91;5054736;28;20233;-74
2023/08/08 10:10:52;;;;;;;2.93;1.30;;;;;;;20.22;62.31;98108.78;5056498;28;20213;-74
2023/08/08 10:13:26;;;;;;;2.00;1.27;;;;;;;20.18;58.34;98102.31;5056040;28;20213;-74
2023/08/08 10:15:55;;;;;;;1.07;1.03;;;;;;;20.53;64.02;98102.09;5056493;28;20204;-74
2023/08/08 10:18:24;;;;;;;2.00;1.40;;;;;;;20.63;57.53;98104.72;5056174;28;20201;-74
2023/08/08 10:20:53;;;;;;;1.73;1.27;;;;;;;20.84;57.72;98100.78;5055687;28;20201;-74
2023/08/08 10:23:20;;;;;;;1.50;1.40;;;;;;;20.75;59.55;98113.28;5056086;28;20208;-72
2023/08/08 10:25:52;;;;;;;1.50;1.27;;;;;;;20.68;58.70;98110.06;5055654;28;20571;-72
2023/08/08 10:28:23;;;;;;;1.30;1.20;;;;;;;20.58;58.77;98110.16;5055240;28;20667;-72
2023/08/08 10:30:58;;;;;;;2.67;1.10;;;;;;;20.55;60.46;98113.41;5055818;28;20197;-73
2023/08/08 10:33:44;;;;;;;5.73;2.47;;;;;;;20.57;57.26;98103.13;5055996;28;20227;-72
2023/08/08 10:36:10;;;;;;;3.67;1.30;;;;;;;20.51;57.68;98101.53;5056004;28;20193;-72
2023/08/08 10:38:46;;;;;;;4.13;3.30;;;;;;;20.38;60.90;98108.38;5055880;28;20221;-72
2023/08/08 10:41:15;;;;;;;14.63;12.90;;;;;;;20.18;58.63;98107.72;5055798;28;20189;-71
2023/08/08 10:43:54;;;;;;;2.13;1.30;;;;;;;20.36;59.43;98104.34;5055432;28;20213;-71
2023/08/08 10:46:32;;;;;;;3.67;2.90;;;;;;;20.72;58.50;98101.13;5055840;28;20204;-71
2023/08/08 10:49:05;;;;;;;2.73;1.40;;;;;;;20.96;58.10;98104.72;5055424;28;20228;-71
2023/08/08 10:51:42;;;;;;;3.20;2.73;;;;;;;20.49;53.65;98099.16;5055683;28;20194;-71
2023/08/08 10:54:14;;;;;;;3.30;2.23;;;;;;;20.69;55.06;98098.16;5055548;28;20276;-71
2023/08/08 10:56:42;;;;;;;2.67;1.67;;;;;;;20.72;57.59;98098.44;5054996;28;20587;-71
2023/08/08 10:59:20;;;;;;;3.27;2.07;;;;;;;20.54;54.47;98090.19;5054916;28;20634;-71
2023/08/08 11:01:48;;;;;;;2.97;1.50;;;;;;;20.77;58.91;98095.69;5055287;28;20229;-71
2023/08/08 11:04:16;;;;;;;3.40;2.40;;;;;;;20.69;54.51;98093.59;5054921;28;20610;-71
2023/08/08 11:06:43;;;;;;;4.30;3.33;;;;;;;20.53;58.37;98091.28;5055086;28;20216;-73
2023/08/08 11:09:09;;;;;;;1.40;1.27;;;;;;;20.61;52.71;98090.69;5055354;28;20596;-73
2023/08/08 11:11:43;;;;;;;1.87;1.67;;;;;;;20.81;54.86;98099.44;5056015;28;20231;-73
2023/08/08 11:14:21;;;;;;;6.03;3.87;;;;;;;20.83;55.57;98097.25;5055864;28;20212;-73
2023/08/08 11:16:49;;;;;;;5.37;4.13;;;;;;;20.75;50.69;98084.34;5055694;28;20553;-73
2023/08/08 11:19:18;;;;;;;4.67;3.97;;;;;;;20.91;49.81;98085.03;5054361;28;20225;-74
2023/08/08 11:21:47;;;;;;;5.03;4.53;;;;;;;20.93;49.30;98088.28;5055146;28;20207;-73
2023/08/08 11:24:14;;;;;;;1.70;1.20;;;;;;;21.17;49.65;98083.72;5054849;28;20417;-73
2023/08/08 11:26:43;;;;;;;5.33;3.77;;;;;;;20.91;51.80;98082.34;5054711;28;20221;-73
2023/08/08 11:29:10;;;;;;;11.50;9.83;;;;;;;20.97;51.32;98092.00;5054455;28;20688;-73